createdAt,value
2018-04-02T00:00:36.702Z,3.1
2018-04-02T00:01:26.436Z,3.1
2018-04-02T00:02:16.199Z,3.2
2018-04-02T00:03:06.263Z,3.1
2018-04-02T00:03:56.322Z,3.1
2018-04-02T00:04:46.654Z,3.1
2018-04-02T00:05:36.051Z,3.1
2018-04-02T00:06:26.498Z,3.1
2018-04-02T00:07:16.258Z,3.1
2018-04-02T00:08:07.204Z,3.1
2018-04-02T00:08:57.158Z,3.1
2018-04-02T00:09:46.739Z,3.1
2018-04-02T00:10:37.382Z,3.1
2018-04-02T00:11:27.453Z,3.1
2018-04-02T00:12:16.941Z,3.1
2018-04-02T00:13:07.284Z,3.1
2018-04-02T00:13:57.043Z,3.1
2018-04-02T00:14:47.108Z,3.1
2018-04-02T00:15:37.461Z,3.1
2018-04-02T00:16:28.052Z,3
2018-04-02T00:17:17.583Z,3
2018-04-02T00:18:07.928Z,3
2018-04-02T00:18:57.717Z,3
2018-04-02T00:19:48.069Z,2.9
2018-04-02T00:20:37.548Z,3
2018-04-02T00:21:28.173Z,3
2018-04-02T00:22:17.757Z,2.9
2018-04-02T00:23:08.304Z,2.9
2018-04-02T00:23:58.442Z,2.9
2018-04-02T00:24:47.630Z,2.9
2018-04-02T00:25:38.197Z,2.9
2018-04-02T00:26:28.258Z,2.9
2018-04-02T00:27:18.304Z,2.9
2018-04-02T00:28:08.358Z,2.9
2018-04-02T00:28:58.137Z,2.9
2018-04-02T00:29:48.204Z,2.9
2018-04-02T00:30:38.533Z,2.8
2018-04-02T00:31:28.700Z,2.8
2018-04-02T00:32:18.474Z,2.8
2018-04-02T00:33:08.248Z,2.8
2018-04-02T00:33:59.096Z,2.8
2018-04-02T00:34:48.572Z,2.8
2018-04-02T00:35:39.195Z,2.8
2018-04-02T00:36:28.959Z,2.8
2018-04-02T00:37:19.304Z,2.8
2018-04-02T00:38:09.372Z,2.8
2018-04-02T00:38:59.435Z,2.8
2018-04-02T00:39:49.477Z,2.8
2018-04-02T00:40:38.981Z,2.8
2018-04-02T00:41:29.611Z,2.8
2018-04-02T00:42:19.449Z,2.8
2018-04-02T00:43:09.469Z,2.8
2018-04-02T00:43:59.516Z,2.7
2018-04-02T00:44:49.581Z,2.8
2018-04-02T00:45:39.734Z,2.8
2018-04-02T00:46:29.989Z,2.8
2018-04-02T00:47:20.047Z,2.7
2018-04-02T00:48:10.116Z,2.7
2018-04-02T00:49:00.164Z,2.7
2018-04-02T00:49:49.929Z,2.7
2018-04-02T00:50:40.279Z,2.7
2018-04-02T00:51:29.786Z,2.6
2018-04-02T00:52:20.103Z,2.7
2018-04-02T00:53:10.485Z,2.6
2018-04-02T00:54:00.534Z,2.6
2018-04-02T00:54:50.595Z,2.6
2018-04-02T00:55:39.795Z,2.6
2018-04-02T00:56:30.707Z,2.6
2018-04-02T00:57:19.996Z,2.6
2018-04-02T00:58:10.860Z,2.6
2018-04-02T00:59:00.335Z,2.6
2018-04-02T00:59:50.483Z,2.6
2018-04-02T01:00:40.434Z,2.6
2018-04-02T01:01:30.773Z,2.6
2018-04-02T01:02:20.563Z,2.6
2018-04-02T01:03:10.917Z,2.5
2018-04-02T01:04:00.480Z,2.5
2018-04-02T01:04:51.337Z,2.5
2018-04-02T01:05:40.899Z,2.4
2018-04-02T01:06:30.673Z,2.4
2018-04-02T01:07:21.193Z,2.4
2018-04-02T01:08:11.276Z,2.4
2018-04-02T01:09:01.342Z,2.3
2018-04-02T01:09:51.422Z,2.3
2018-04-02T01:10:41.058Z,2.3
2018-04-02T01:11:31.239Z,2.3
2018-04-02T01:12:21.879Z,2.3
2018-04-02T01:13:11.353Z,2.3
2018-04-02T01:14:01.705Z,2.2
2018-04-02T01:14:51.557Z,2.2
2018-04-02T01:15:41.836Z,2.2
2018-04-02T01:16:31.900Z,2.1
2018-04-02T01:17:21.654Z,2.1
2018-04-02T01:18:11.994Z,2.1
2018-04-02T01:19:01.281Z,2.1
2018-04-02T01:19:52.428Z,2.1
2018-04-02T01:20:41.607Z,2.1
2018-04-02T01:21:31.855Z,2.1
2018-04-02T01:22:22.019Z,2.1
2018-04-02T01:23:11.589Z,2.1
2018-04-02T01:24:02.230Z,2
2018-04-02T01:24:52.512Z,2
2018-04-02T01:25:42.843Z,2
2018-04-02T01:26:32.011Z,2
2018-04-02T01:27:22.959Z,2
2018-04-02T01:28:12.457Z,1.9
2018-04-02T01:29:02.516Z,1.9
2018-04-02T01:29:52.561Z,1.9
2018-04-02T01:30:42.701Z,1.9
2018-04-02T01:31:33.044Z,1.9
2018-04-02T01:32:23.053Z,1.9
2018-04-02T01:33:12.793Z,1.8
2018-04-02T01:34:03.256Z,1.8
2018-04-02T01:34:53.218Z,1.8
2018-04-02T01:35:43.165Z,1.8
2018-04-02T01:36:33.603Z,1.8
2018-04-02T01:37:23.402Z,1.8
2018-04-02T01:38:12.779Z,1.7
2018-04-02T01:39:03.814Z,1.7
2018-04-02T01:39:53.663Z,1.7
2018-04-02T01:40:43.996Z,1.7
2018-04-02T01:41:33.993Z,1.6
2018-04-02T01:42:24.059Z,1.7
2018-04-02T01:43:14.126Z,1.7
2018-04-02T01:44:03.889Z,1.6
2018-04-02T01:44:53.463Z,1.6
2018-04-02T01:45:44.105Z,1.6
2018-04-02T01:46:34.063Z,1.6
2018-04-02T01:47:23.847Z,1.6
2018-04-02T01:48:14.172Z,1.7
2018-04-02T01:49:04.535Z,1.6
2018-04-02T01:49:54.578Z,1.6
2018-04-02T01:50:44.714Z,1.6
2018-04-02T01:51:34.453Z,1.5
2018-04-02T01:52:24.765Z,1.5
2018-04-02T01:53:14.268Z,1.4
2018-04-02T01:54:04.895Z,1.4
2018-04-02T01:54:54.685Z,1.4
2018-04-02T01:55:44.747Z,1.4
2018-04-02T01:56:34.802Z,1.4
2018-04-02T01:57:24.295Z,1.4
2018-04-02T01:58:14.921Z,1.4
2018-04-02T01:59:04.287Z,1.3
2018-04-02T01:59:54.854Z,1.3
2018-04-02T02:00:44.825Z,1.3
2018-04-02T02:01:35.194Z,1.3
2018-04-02T02:02:25.531Z,1.3
2018-04-02T02:03:15.274Z,1.3
2018-04-02T02:04:05.049Z,1.3
2018-04-02T02:04:54.830Z,1.2
2018-04-02T02:05:44.994Z,1.3
2018-04-02T02:06:35.347Z,1.3
2018-04-02T02:07:25.104Z,1.2
2018-04-02T02:08:15.657Z,1.2
2018-04-02T02:09:05.468Z,1.3
2018-04-02T02:09:55.565Z,1.2
2018-04-02T02:10:45.837Z,1.2
2018-04-02T02:11:35.410Z,1.3
2018-04-02T02:12:25.674Z,1.2
2018-04-02T02:13:15.824Z,1.3
2018-04-02T02:14:05.594Z,1.3
2018-04-02T02:14:55.656Z,1.3
2018-04-02T02:15:45.601Z,1.3
2018-04-02T02:16:35.777Z,1.3
2018-04-02T02:17:26.034Z,1.3
2018-04-02T02:18:15.809Z,1.3
2018-04-02T02:19:06.163Z,1.3
2018-04-02T02:19:55.900Z,1.3
2018-04-02T02:20:46.259Z,1.3
2018-04-02T02:21:36.218Z,1.3
2018-04-02T02:22:26.281Z,1.3
2018-04-02T02:23:16.763Z,1.3
2018-04-02T02:24:06.916Z,1.3
2018-04-02T02:24:56.855Z,1.3
2018-04-02T02:25:46.920Z,1.3
2018-04-02T02:26:36.804Z,1.3
2018-04-02T02:27:26.898Z,1.3
2018-04-02T02:28:17.383Z,1.3
2018-04-02T02:29:06.481Z,1.3
2018-04-02T02:29:57.240Z,1.3
2018-04-02T02:30:47.112Z,1.3
2018-04-02T02:31:37.076Z,1.2
2018-04-02T02:32:27.410Z,1.2
2018-04-02T02:33:17.466Z,1.2
2018-04-02T02:34:07.556Z,1.2
2018-04-02T02:34:57.163Z,1.2
2018-04-02T02:35:47.084Z,1.2
2018-04-02T02:36:37.150Z,1.1
2018-04-02T02:37:27.869Z,1.1
2018-04-02T02:38:18.139Z,1.1
2018-04-02T02:39:07.919Z,1.1
2018-04-02T02:39:58.311Z,1.1
2018-04-02T02:40:47.740Z,1.1
2018-04-02T02:41:38.367Z,1.1
2018-04-02T02:42:28.134Z,1.1
2018-04-02T02:43:17.911Z,1.1
2018-04-02T02:44:07.983Z,1
2018-04-02T02:44:58.437Z,1
2018-04-02T02:45:48.674Z,1
2018-04-02T02:46:38.166Z,1
2018-04-02T02:47:28.804Z,1
2018-04-02T02:48:18.560Z,1
2018-04-02T02:49:08.354Z,0.9
2018-04-02T02:49:58.992Z,0.9
2018-04-02T02:50:49.053Z,0.9
2018-04-02T02:51:38.811Z,0.9
2018-04-02T02:52:29.151Z,0.9
2018-04-02T02:53:19.223Z,0.8
2018-04-02T02:54:09.284Z,0.8
2018-04-02T02:54:59.080Z,0.8
2018-04-02T02:55:49.385Z,0.8
2018-04-02T02:56:39.456Z,0.8
2018-04-02T02:57:29.513Z,0.8
2018-04-02T02:58:19.291Z,0.8
2018-04-02T02:59:09.369Z,0.8
2018-04-02T02:59:59.420Z,0.8
2018-04-02T03:00:49.765Z,0.8
2018-04-02T03:01:39.825Z,0.8
2018-04-02T03:02:29.628Z,0.8
2018-04-02T03:03:19.664Z,0.8
2018-04-02T03:04:09.713Z,0.8
2018-04-02T03:04:59.521Z,0.8
2018-04-02T03:05:49.553Z,0.8
2018-04-02T03:06:39.618Z,0.8
2018-04-02T03:07:30.242Z,0.8
2018-04-02T03:08:20.048Z,0.8
2018-04-02T03:09:10.125Z,0.8
2018-04-02T03:09:59.943Z,0.8
2018-04-02T03:10:49.515Z,0.9
2018-04-02T03:11:39.977Z,0.9
2018-04-02T03:12:29.845Z,0.9
2018-04-02T03:13:20.100Z,0.9
2018-04-02T03:14:09.770Z,1
2018-04-02T03:15:00.519Z,1
2018-04-02T03:15:50.595Z,1
2018-04-02T03:16:40.245Z,1
2018-04-02T03:17:30.398Z,1.1
2018-04-02T03:18:20.265Z,1.1
2018-04-02T03:19:10.330Z,1.1
2018-04-02T03:20:00.778Z,1.1
2018-04-02T03:20:50.352Z,1.2
2018-04-02T03:21:40.712Z,1.2
2018-04-02T03:22:31.352Z,1.2
2018-04-02T03:23:20.927Z,1.3
2018-04-02T03:24:11.192Z,1.3
2018-04-02T03:25:01.030Z,1.3
2018-04-02T03:25:51.387Z,1.3
2018-04-02T03:26:41.344Z,1.4
2018-04-02T03:27:31.417Z,1.4
2018-04-02T03:28:21.492Z,1.4
2018-04-02T03:29:11.527Z,1.4
2018-04-02T03:30:01.033Z,1.4
2018-04-02T03:30:51.728Z,1.4
2018-04-02T03:31:41.447Z,1.4
2018-04-02T03:32:31.800Z,1.5
2018-04-02T03:33:21.572Z,1.5
2018-04-02T03:34:11.035Z,1.5
2018-04-02T03:35:02.264Z,1.5
2018-04-02T03:35:52.024Z,1.6
2018-04-02T03:36:42.405Z,1.6
2018-04-02T03:37:32.146Z,1.6
2018-04-02T03:38:21.935Z,1.6
2018-04-02T03:39:12.261Z,1.6
2018-04-02T03:40:02.343Z,1.7
2018-04-02T03:40:52.206Z,1.7
2018-04-02T03:41:42.159Z,1.8
2018-04-02T03:42:32.313Z,1.8
2018-04-02T03:43:22.575Z,1.8
2018-04-02T03:44:12.360Z,1.8
2018-04-02T03:45:02.965Z,1.8
2018-04-02T03:45:52.473Z,1.8
2018-04-02T03:46:42.828Z,1.8
2018-04-02T03:47:32.678Z,1.8
2018-04-02T03:48:23.211Z,1.9
2018-04-02T03:49:12.995Z,1.9
2018-04-02T03:50:03.368Z,1.9
2018-04-02T03:50:53.116Z,1.9
2018-04-02T03:51:43.478Z,2
2018-04-02T03:52:33.255Z,2
2018-04-02T03:53:23.028Z,2.1
2018-04-02T03:54:13.355Z,2.1
2018-04-02T03:55:03.435Z,2.1
2018-04-02T03:55:53.466Z,2.2
2018-04-02T03:56:43.562Z,2.2
2018-04-02T03:57:33.898Z,2.3
2018-04-02T03:58:24.007Z,2.3
2018-04-02T03:59:13.448Z,2.3
2018-04-02T04:00:04.080Z,2.3
2018-04-02T04:00:53.845Z,2.4
2018-04-02T04:01:44.200Z,2.4
2018-04-02T04:02:33.695Z,2.4
2018-04-02T04:03:24.027Z,2.4
2018-04-02T04:04:14.353Z,2.4
2018-04-02T04:05:04.168Z,2.5
2018-04-02T04:05:54.214Z,2.5
2018-04-02T04:06:44.554Z,2.6
2018-04-02T04:07:34.045Z,2.6
2018-04-02T04:08:23.904Z,2.6
2018-04-02T04:09:14.436Z,2.6
2018-04-02T04:10:04.311Z,2.6
2018-04-02T04:10:54.856Z,2.7
2018-04-02T04:11:44.347Z,2.7
2018-04-02T04:12:34.973Z,2.8
2018-04-02T04:13:24.571Z,2.8
2018-04-02T04:14:14.832Z,2.8
2018-04-02T04:15:04.902Z,2.8
2018-04-02T04:15:54.939Z,2.8
2018-04-02T04:16:44.984Z,2.8
2018-04-02T04:17:34.787Z,2.9
2018-04-02T04:18:25.125Z,2.9
2018-04-02T04:19:15.176Z,2.9
2018-04-02T04:20:04.959Z,2.9
2018-04-02T04:20:54.953Z,2.9
2018-04-02T04:21:45.084Z,2.9
2018-04-02T04:22:34.931Z,3
2018-04-02T04:23:25.301Z,3.1
2018-04-02T04:24:14.971Z,3.1
2018-04-02T04:25:05.123Z,3.1
2018-04-02T04:25:54.983Z,3.1
2018-04-02T04:26:45.443Z,3.1
2018-04-02T04:27:35.570Z,3.2
2018-04-02T04:28:25.555Z,3.3
2018-04-02T04:29:15.626Z,3.3
2018-04-02T04:30:05.680Z,3.3
2018-04-02T04:30:56.030Z,3.4
2018-04-02T04:31:46.187Z,3.4
2018-04-02T04:32:36.434Z,3.4
2018-04-02T04:33:26.020Z,3.5
2018-04-02T04:34:16.263Z,3.5
2018-04-02T04:35:05.641Z,3.6
2018-04-02T04:35:56.204Z,3.6
2018-04-02T04:36:46.222Z,3.6
2018-04-02T04:37:36.509Z,3.7
2018-04-02T04:38:26.678Z,3.7
2018-04-02T04:39:16.040Z,3.8
2018-04-02T04:40:06.007Z,3.8
2018-04-02T04:40:56.459Z,3.8
2018-04-02T04:41:46.529Z,3.8
2018-04-02T04:42:36.873Z,3.8
2018-04-02T04:43:26.445Z,3.9
2018-04-02T04:44:16.987Z,3.9
2018-04-02T04:45:06.481Z,3.9
2018-04-02T04:45:57.222Z,3.9
2018-04-02T04:46:46.867Z,3.9
2018-04-02T04:47:37.331Z,4
2018-04-02T04:48:27.097Z,4
2018-04-02T04:49:17.143Z,4
2018-04-02T04:50:06.832Z,4.1
2018-04-02T04:50:57.470Z,4.1
2018-04-02T04:51:47.026Z,4.1
2018-04-02T04:52:37.672Z,4.1
2018-04-02T04:53:27.674Z,4.1
2018-04-02T04:54:17.426Z,4.2
2018-04-02T04:55:07.485Z,4.2
2018-04-02T04:55:57.839Z,4.3
2018-04-02T04:56:48.194Z,4.3
2018-04-02T04:57:38.066Z,4.3
2018-04-02T04:58:27.526Z,4.3
2018-04-02T04:59:17.899Z,4.4
2018-04-02T05:00:08.429Z,4.4
2018-04-02T05:00:58.020Z,4.4
2018-04-02T05:01:47.979Z,4.4
2018-04-02T05:02:38.428Z,4.4
2018-04-02T05:03:28.386Z,4.4
2018-04-02T05:04:18.164Z,4.5
2018-04-02T05:05:08.509Z,4.5
2018-04-02T05:05:58.354Z,4.5
2018-04-02T05:06:48.333Z,4.6
2018-04-02T05:07:38.688Z,4.6
2018-04-02T05:08:28.556Z,4.6
2018-04-02T05:09:19.078Z,4.6
2018-04-02T05:10:08.871Z,4.6
2018-04-02T05:10:58.651Z,4.6
2018-04-02T05:11:48.693Z,4.7
2018-04-02T05:12:39.086Z,4.7
2018-04-02T05:13:28.615Z,4.7
2018-04-02T05:14:18.972Z,4.8
2018-04-02T05:15:08.543Z,4.8
2018-04-02T05:15:59.077Z,4.8
2018-04-02T05:16:48.944Z,4.8
2018-04-02T05:17:38.800Z,4.8
2018-04-02T05:18:29.189Z,4.9
2018-04-02T05:19:19.525Z,4.9
2018-04-02T05:20:09.894Z,4.9
2018-04-02T05:20:59.655Z,4.9
2018-04-02T05:21:49.717Z,4.9
2018-04-02T05:22:39.845Z,5
2018-04-02T05:23:29.545Z,5
2018-04-02T05:24:19.611Z,5
2018-04-02T05:25:09.947Z,5
2018-04-02T05:25:59.709Z,5
2018-04-02T05:26:50.069Z,5
2018-04-02T05:27:40.390Z,5
2018-04-02T05:28:30.482Z,5
2018-04-02T05:29:20.252Z,5
2018-04-02T05:30:10.589Z,5
2018-04-02T05:31:00.770Z,5
2018-04-02T05:31:50.704Z,5.1
2018-04-02T05:32:40.774Z,5.1
2018-04-02T05:33:30.566Z,5.1
2018-04-02T05:34:20.889Z,5.1
2018-04-02T05:35:10.679Z,5.1
2018-04-02T05:36:01.047Z,5.1
2018-04-02T05:36:51.081Z,5.1
2018-04-02T05:37:40.585Z,5.1
2018-04-02T05:38:31.201Z,5.1
2018-04-02T05:39:20.774Z,5.1
2018-04-02T05:40:10.748Z,5.1
2018-04-02T05:41:00.803Z,5.1
2018-04-02T05:41:50.880Z,5.1
2018-04-02T05:42:40.925Z,5.2
2018-04-02T05:43:30.987Z,5.2
2018-04-02T05:44:21.350Z,5.2
2018-04-02T05:45:11.023Z,5.2
2018-04-02T05:46:01.267Z,5.2
2018-04-02T05:46:51.817Z,5.2
2018-04-02T05:47:41.372Z,5.3
2018-04-02T05:48:31.143Z,5.3
2018-04-02T05:49:21.589Z,5.3
2018-04-02T05:50:12.045Z,5.3
2018-04-02T05:51:01.529Z,5.3
2018-04-02T05:51:51.973Z,5.3
2018-04-02T05:52:41.540Z,5.3
2018-04-02T05:53:31.815Z,5.3
2018-04-02T05:54:22.051Z,5.3
2018-04-02T05:55:12.222Z,5.4
2018-04-02T05:56:01.996Z,5.4
2018-04-02T05:56:51.956Z,5.4
2018-04-02T05:57:42.013Z,5.4
2018-04-02T05:58:32.182Z,5.4
2018-04-02T05:59:22.702Z,5.4
2018-04-02T06:00:12.489Z,5.4
2018-04-02T06:01:02.041Z,5.5
2018-04-02T06:01:52.619Z,5.5
2018-04-02T06:02:42.371Z,5.6
2018-04-02T06:03:32.234Z,5.6
2018-04-02T06:04:23.083Z,5.6
2018-04-02T06:05:12.366Z,5.7
2018-04-02T06:06:02.913Z,5.7
2018-04-02T06:06:53.242Z,5.8
2018-04-02T06:07:42.527Z,5.8
2018-04-02T06:08:32.516Z,5.9
2018-04-02T06:09:22.661Z,6.1
2018-04-02T06:10:13.221Z,6.5
2018-04-02T06:11:03.376Z,7.3
2018-04-02T06:11:53.133Z,8.1
2018-04-02T06:12:42.899Z,8.8
2018-04-02T06:13:33.154Z,9.3
2018-04-02T06:14:23.243Z,9.6
2018-04-02T06:15:13.168Z,9.9
2018-04-02T06:16:02.939Z,10.1
2018-04-02T06:16:53.514Z,10.4
2018-04-02T06:17:43.765Z,10.7
2018-04-02T06:18:33.827Z,11
2018-04-02T06:19:23.890Z,11.4
2018-04-02T06:20:13.613Z,11.8
2018-04-02T06:21:03.975Z,12.3
2018-04-02T06:21:54.045Z,12.8
2018-04-02T06:22:43.915Z,13.2
2018-04-02T06:23:34.162Z,13.8
2018-04-02T06:24:24.515Z,14.4
2018-04-02T06:25:14.297Z,15
2018-04-02T06:26:04.064Z,15.6
2018-04-02T06:26:54.115Z,16
2018-04-02T06:27:44.277Z,16.4
2018-04-02T06:28:34.537Z,16.8
2018-04-02T06:29:24.392Z,17.3
2018-04-02T06:30:14.450Z,17.6
2018-04-02T06:31:05.015Z,17.8
2018-04-02T06:31:54.277Z,18.2
2018-04-02T06:32:44.519Z,18.4
2018-04-02T06:33:34.304Z,18.6
2018-04-02T06:35:14.558Z,18.8
2018-04-02T06:36:05.072Z,18.9
2018-04-02T06:36:55.311Z,18.9
2018-04-02T06:37:45.287Z,18.9
2018-04-02T06:38:35.262Z,18.8
2018-04-02T06:39:25.369Z,18.8
2018-04-02T06:40:15.085Z,18.8
2018-04-02T06:41:55.100Z,18.6
2018-04-02T06:42:45.071Z,18.5
2018-04-02T06:43:35.335Z,18.4
2018-04-02T06:44:25.777Z,18.2
2018-04-02T06:45:15.511Z,18.1
2018-04-02T06:46:05.782Z,17.9
2018-04-02T06:46:55.853Z,17.8
2018-04-02T06:47:45.427Z,17.8
2018-04-02T06:48:35.982Z,17.6
2018-04-02T06:49:26.326Z,17.6
2018-04-02T06:50:16.384Z,17.5
2018-04-02T06:51:06.148Z,17.4
2018-04-02T06:51:56.306Z,17.4
2018-04-02T06:52:45.785Z,17.4
2018-04-02T06:53:35.839Z,17.3
2018-04-02T06:54:26.216Z,17.3
2018-04-02T06:55:16.756Z,17.3
2018-04-02T06:56:06.223Z,17.3
2018-04-02T06:56:56.581Z,17.2
2018-04-02T06:57:46.648Z,17.2
2018-04-02T06:58:36.203Z,17.1
2018-04-02T06:59:27.046Z,17.2
2018-04-02T07:00:16.418Z,17.2
2018-04-02T07:01:06.763Z,17.3
2018-04-02T07:01:56.648Z,17.4
2018-04-02T07:02:46.877Z,17.4
2018-04-02T07:03:36.362Z,17.4
2018-04-02T07:04:26.946Z,17.5
2018-04-02T07:05:17.260Z,17.7
2018-04-02T07:06:07.327Z,17.8
2018-04-02T07:06:57.018Z,17.9
2018-04-02T07:07:47.379Z,18.1
2018-04-02T07:08:37.230Z,18.3
2018-04-02T07:09:27.276Z,18.6
2018-04-02T07:10:17.829Z,18.8
2018-04-02T07:11:07.307Z,18.9
2018-04-02T07:11:57.367Z,19.1
2018-04-02T07:12:47.022Z,19.1
2018-04-02T07:13:37.475Z,19.1
2018-04-02T07:14:27.919Z,19.1
2018-04-02T07:15:18.198Z,19.1
2018-04-02T07:16:07.977Z,19.1
2018-04-02T07:16:57.529Z,19.1
2018-04-02T07:17:48.181Z,19.1
2018-04-02T07:18:38.021Z,19.1
2018-04-02T07:19:28.289Z,19.1
2018-04-02T07:20:18.252Z,19.1
2018-04-02T07:21:07.844Z,19.1
2018-04-02T07:21:57.803Z,19.1
2018-04-02T07:22:48.142Z,19.1
2018-04-02T07:23:38.113Z,19.1
2018-04-02T07:24:28.569Z,19.1
2018-04-02T07:25:18.625Z,19
2018-04-02T07:26:08.153Z,19
2018-04-02T07:26:58.532Z,19.1
2018-04-02T07:27:47.916Z,19.1
2018-04-02T07:28:38.661Z,19.2
2018-04-02T07:29:29.069Z,19.3
2018-04-02T07:30:18.394Z,19.4
2018-04-02T07:31:09.046Z,19.6
2018-04-02T07:31:58.881Z,19.8
2018-04-02T07:32:49.160Z,20.1
2018-04-02T07:33:38.804Z,20.4
2018-04-02T07:34:29.079Z,20.8
2018-04-02T07:35:19.037Z,21.6
2018-04-02T07:36:09.437Z,23.5
2018-04-02T07:36:59.450Z,25.8
2018-04-02T07:37:49.796Z,27.8
2018-04-02T07:38:39.580Z,29.3
2018-04-02T07:39:29.733Z,30.8
2018-04-02T07:40:19.984Z,31.8
2018-04-02T07:41:09.462Z,32.3
2018-04-02T07:41:59.805Z,32.5
2018-04-02T07:42:49.949Z,32.6
2018-04-02T07:43:39.731Z,32.5
2018-04-02T07:44:29.701Z,32.6
2018-04-02T07:45:20.153Z,32.7
2018-04-02T07:46:09.822Z,33.1
2018-04-02T07:46:59.762Z,34
2018-04-02T07:47:49.545Z,35.6
2018-04-02T07:48:40.587Z,37
2018-04-02T07:49:30.638Z,37.9
2018-04-02T07:50:20.399Z,38.5
2018-04-02T07:51:10.185Z,38.9
2018-04-02T07:52:00.516Z,39.2
2018-04-02T07:52:50.182Z,39.4
2018-04-02T07:53:40.645Z,39.6
2018-04-02T07:54:30.707Z,40.1
2018-04-02T07:55:20.762Z,41
2018-04-02T07:56:10.847Z,42.2
2018-04-02T07:57:00.876Z,43.2
2018-04-02T07:57:50.742Z,43.8
2018-04-02T07:58:40.596Z,43.9
2018-04-02T07:59:30.789Z,44.1
2018-04-02T08:00:20.626Z,44.2
2018-04-02T08:01:11.191Z,44.6
2018-04-02T08:02:00.969Z,45.3
2018-04-02T08:02:51.222Z,46.4
2018-04-02T08:03:41.682Z,47.4
2018-04-02T08:04:31.127Z,47.8
2018-04-02T08:05:21.284Z,48
2018-04-02T08:06:11.342Z,48.2
2018-04-02T08:07:01.124Z,48.4
2018-04-02T08:07:51.466Z,48.5
2018-04-02T08:08:41.561Z,48.4
2018-04-02T08:09:31.792Z,48.5
2018-04-02T08:10:21.532Z,48.8
2018-04-02T08:11:12.000Z,49.4
2018-04-02T08:12:01.369Z,50.3
2018-04-02T08:12:51.734Z,51
2018-04-02T08:13:41.649Z,51.2
2018-04-02T08:14:31.939Z,51.1
2018-04-02T08:15:21.922Z,50.9
2018-04-02T08:16:11.971Z,51.2
2018-04-02T08:17:01.758Z,51.8
2018-04-02T08:17:52.864Z,52.8
2018-04-02T08:18:42.151Z,54.3
2018-04-02T08:19:32.526Z,56.4
2018-04-02T08:20:22.266Z,58
2018-04-02T08:21:12.912Z,55.6
2018-04-02T08:22:02.696Z,53.2
2018-04-02T08:22:53.025Z,50.9
2018-04-02T08:23:42.816Z,46.9
2018-04-02T08:24:32.670Z,44.6
2018-04-02T08:25:22.959Z,43.3
2018-04-02T08:26:12.822Z,42.5
2018-04-02T08:27:03.054Z,42
2018-04-02T08:27:52.831Z,41.4
2018-04-02T08:28:42.693Z,41
2018-04-02T08:29:33.243Z,40.7
2018-04-02T08:30:22.814Z,40.3
2018-04-02T08:31:13.084Z,40.1
2018-04-02T08:32:03.428Z,39.7
2018-04-02T08:32:53.759Z,39.3
2018-04-02T08:33:43.364Z,39.1
2018-04-02T08:34:32.924Z,38.9
2018-04-02T08:35:23.088Z,38.6
2018-04-02T08:36:14.014Z,38.4
2018-04-02T08:37:03.804Z,38.1
2018-04-02T08:37:54.191Z,37.9
2018-04-02T08:38:43.792Z,37.7
2018-04-02T08:39:33.979Z,37.4
2018-04-02T08:40:24.047Z,37.2
2018-04-02T08:41:13.612Z,36.9
2018-04-02T08:42:03.869Z,36.8
2018-04-02T08:42:53.935Z,36.9
2018-04-02T08:43:43.990Z,37.6
2018-04-02T08:44:33.844Z,39.2
2018-04-02T08:45:24.001Z,41.1
2018-04-02T08:46:14.751Z,42.6
2018-04-02T08:47:04.566Z,43.6
2018-04-02T08:47:54.292Z,44
2018-04-02T08:48:44.638Z,44.4
2018-04-02T08:49:34.716Z,44.6
2018-04-02T08:50:25.066Z,44.8
2018-04-02T08:51:15.160Z,44.8
2018-04-02T08:52:04.602Z,44.8
2018-04-02T08:52:55.014Z,45.1
2018-04-02T08:53:45.011Z,45.4
2018-04-02T08:54:34.589Z,45.8
2018-04-02T08:55:24.952Z,46.1
2018-04-02T08:56:15.020Z,46.2
2018-04-02T08:57:05.549Z,46.9
2018-04-02T08:57:55.032Z,48.3
2018-04-02T08:58:44.974Z,49.9
2018-04-02T08:59:35.741Z,51.3
2018-04-02T09:00:25.036Z,51.8
2018-04-02T09:01:15.656Z,52.7
2018-04-02T09:02:05.418Z,53.9
2018-04-02T09:02:55.190Z,53.2
2018-04-02T09:03:45.749Z,51.9
2018-04-02T09:04:35.522Z,50.9
2018-04-02T09:05:25.581Z,48.7
2018-04-02T09:06:15.751Z,46.9
2018-04-02T09:07:05.601Z,46.3
2018-04-02T09:07:56.330Z,46.6
2018-04-02T09:08:46.409Z,47.9
2018-04-02T09:09:35.588Z,49.8
2018-04-02T09:10:25.942Z,52.1
2018-04-02T09:11:16.003Z,56.4
2018-04-02T09:12:06.358Z,59.1
2018-04-02T09:12:56.213Z,58.1
2018-04-02T09:13:46.749Z,58.2
2018-04-02T09:14:35.552Z,58.1
2018-04-02T09:16:16.952Z,57.1
2018-04-02T09:17:06.340Z,56.3
2018-04-02T09:17:56.806Z,55.3
2018-04-02T09:18:46.661Z,53.8
2018-04-02T09:19:37.004Z,52.3
2018-04-02T09:20:26.981Z,51.7
2018-04-02T09:21:17.116Z,52.2
2018-04-02T09:22:06.517Z,52.6
2018-04-02T09:22:56.972Z,52.9
2018-04-02T09:23:47.011Z,54.4
2018-04-02T09:24:36.971Z,55.5
2018-04-02T09:25:27.371Z,55.2
2018-04-02T09:26:17.103Z,53.8
2018-04-02T09:27:07.276Z,51.6
2018-04-02T09:27:56.848Z,49.5
2018-04-02T09:28:47.186Z,48
2018-04-02T09:29:37.371Z,47
2018-04-02T09:30:27.523Z,46.6
2018-04-02T09:31:17.777Z,46.5
2018-04-02T09:32:07.628Z,46.4
2018-04-02T09:32:57.911Z,46.1
2018-04-02T09:33:47.944Z,45.5
2018-04-02T09:34:38.021Z,45.1
2018-04-02T09:35:27.889Z,44.7
2018-04-02T09:36:18.134Z,44.3
2018-04-02T09:37:08.011Z,43.9
2018-04-02T09:37:58.554Z,43.4
2018-04-02T09:38:48.031Z,43.1
2018-04-02T09:39:38.388Z,42.5
2018-04-02T09:40:28.053Z,41.8
2018-04-02T09:41:18.308Z,41.1
2018-04-02T09:42:08.872Z,40.4
2018-04-02T09:42:58.928Z,39.9
2018-04-02T09:43:48.976Z,40.3
2018-04-02T09:44:39.084Z,41.8
2018-04-02T09:45:28.813Z,44.2
2018-04-02T09:46:18.865Z,47.2
2018-04-02T09:47:09.219Z,50.6
2018-04-02T09:47:59.281Z,53.9
2018-04-02T09:48:49.332Z,57.2
2018-04-02T09:49:39.422Z,59.8
2018-04-02T09:50:29.184Z,58.4
2018-04-02T09:51:19.246Z,55.1
2018-04-02T09:52:09.603Z,52.3
2018-04-02T09:52:59.359Z,49.1
2018-04-02T09:53:49.428Z,46.2
2018-04-02T09:54:39.775Z,44.4
2018-04-02T09:55:29.550Z,43.3
2018-04-02T09:56:19.599Z,42.4
2018-04-02T09:57:09.966Z,41.6
2018-04-02T09:58:00.006Z,41.1
2018-04-02T09:58:50.069Z,40.6
2018-04-02T09:59:40.205Z,40.3
2018-04-02T10:00:30.210Z,39.9
2018-04-02T10:01:20.266Z,39.5
2018-04-02T10:02:10.327Z,39.3
2018-04-02T10:03:00.094Z,39.1
2018-04-02T10:03:50.444Z,38.9
2018-04-02T10:04:40.813Z,38.6
2018-04-02T10:05:30.276Z,38.4
2018-04-02T10:06:20.619Z,38.2
2018-04-02T10:07:10.429Z,37.9
2018-04-02T10:08:00.507Z,37.6
2018-04-02T10:08:50.515Z,37.3
2018-04-02T10:09:40.617Z,37.1
2018-04-02T10:10:30.851Z,36.9
2018-04-02T10:11:20.991Z,36.7
2018-04-02T10:12:11.078Z,36.5
2018-04-02T10:13:00.828Z,36.4
2018-04-02T10:13:51.200Z,36.3
2018-04-02T10:14:40.958Z,36.7
2018-04-02T10:15:31.191Z,38.1
2018-04-02T10:16:21.364Z,40.8
2018-04-02T10:17:11.421Z,42.9
2018-04-02T10:18:01.521Z,44.1
2018-04-02T10:18:51.545Z,44.6
2018-04-02T10:19:41.336Z,44.8
2018-04-02T10:20:31.687Z,45.1
2018-04-02T10:21:21.735Z,45.2
2018-04-02T10:22:11.533Z,45.1
2018-04-02T10:23:01.463Z,45
2018-04-02T10:23:51.989Z,44.9
2018-04-02T10:24:41.410Z,44.9
2018-04-02T10:25:31.478Z,45
2018-04-02T10:26:21.849Z,44.9
2018-04-02T10:27:11.908Z,44.7
2018-04-02T10:28:02.054Z,44.6
2018-04-02T10:28:51.998Z,44.4
2018-04-02T10:29:42.194Z,44.4
2018-04-02T10:30:31.830Z,44.9
2018-04-02T10:31:22.462Z,46.2
2018-04-02T10:32:11.808Z,48.2
2018-04-02T10:33:02.215Z,49.8
2018-04-02T10:33:52.387Z,50.5
2018-04-02T10:34:42.444Z,50.6
2018-04-02T10:35:32.205Z,51
2018-04-02T10:37:12.808Z,51.4
2018-04-02T10:38:02.389Z,49.3
2018-04-02T10:38:52.466Z,47.5
2018-04-02T10:39:42.116Z,45.8
2018-04-02T10:40:32.469Z,44.6
2018-04-02T10:41:22.914Z,44.2
2018-04-02T10:42:12.693Z,44.3
2018-04-02T10:43:03.342Z,44.6
2018-04-02T10:43:53.126Z,44.9
2018-04-02T10:44:42.981Z,45
2018-04-02T10:45:32.733Z,45.3
2018-04-02T10:46:23.100Z,45.6
2018-04-02T10:47:12.964Z,46
2018-04-02T10:48:03.131Z,46.3
2018-04-02T10:48:53.561Z,46.4
2018-04-02T10:49:43.033Z,46.4
2018-04-02T10:50:32.994Z,46.4
2018-04-02T10:51:23.958Z,46.3
2018-04-02T10:52:13.990Z,46.2
2018-04-02T10:53:03.789Z,46
2018-04-02T10:53:53.886Z,45.8
2018-04-02T10:54:43.608Z,45.6
2018-04-02T10:55:33.693Z,45.4
2018-04-02T10:56:24.308Z,45.4
2018-04-02T10:57:13.803Z,45.3
2018-04-02T10:58:04.144Z,45.2
2018-04-02T10:58:54.200Z,44.9
2018-04-02T10:59:44.190Z,44.8
2018-04-02T11:00:34.128Z,44.7
2018-04-02T11:01:24.109Z,44.4
2018-04-02T11:02:14.484Z,44.3
2018-04-02T11:03:04.333Z,44.1
2018-04-02T11:03:54.857Z,43.9
2018-04-02T11:04:44.470Z,43.7
2018-04-02T11:05:34.709Z,43.5
2018-04-02T11:06:24.780Z,43.3
2018-04-02T11:07:14.748Z,43.1
2018-04-02T11:08:05.160Z,42.9
2018-04-02T11:08:54.770Z,42.6
2018-04-02T11:09:44.522Z,42.4
2018-04-02T11:10:35.079Z,42.3
2018-04-02T11:11:25.419Z,42.1
2018-04-02T11:12:14.905Z,41.9
2018-04-02T11:13:05.272Z,41.6
2018-04-02T11:13:55.010Z,41.3
2018-04-02T11:14:44.684Z,41.1
2018-04-02T11:15:34.876Z,41.4
2018-04-02T11:16:25.397Z,42.3
2018-04-02T11:17:14.964Z,44.1
2018-04-02T11:18:05.334Z,46.6
2018-04-02T11:18:55.699Z,49.2
2018-04-02T11:19:45.761Z,51.4
2018-04-02T11:20:35.412Z,53.6
2018-04-02T11:21:25.859Z,56.4
2018-04-02T11:22:16.242Z,60.6
2018-04-02T11:23:06.284Z,60.4
2018-04-02T11:24:46.391Z,57.4
2018-04-02T11:25:36.462Z,54.1
2018-04-02T11:26:26.530Z,50.7